Terminal Aerodrome Forecast
Issued by NWS Blacksburg, VA

Current Version | Previous Version | Graphics & Text | Print | Product List | Glossary On
Versions: 1 2 3 4 5 6 7 8 9 10 11 12 13 14 15 16 17 18 19 20 21
000
FTUS41 KRNK 172323
TAFBLF
TAF
KBLF 172323Z 1800/1824 16006KT P6SM SCT090
     FM180800 18007KT P6SM BKN090
     FM181200 19009KT P6SM BKN090 WS020/23035KT
     FM181600 21011KT P6SM SCT035 BKN060=

USA.gov is the U.S. government's official web portal to all federal, state and local government web resources and services.